Fredericksburg, Virginia
Current Conditions -  °F | °C
As of 9:15 AM on Monday 20 Oct 2014 (Local Time) from KEZF Reporting Station
Clear Clear  
Wind Chill: 43°   Ceiling: Unl
Heat Index: 46°   Visibility: 10mi
Dew Point: 44°   Wind: 5mph
Humidity: 93%   Direction: 150°SSE
Pressure: 30.13"   Gusts: NA
Location:  38.3°N, 77.46°W
Report Text: KEZF 201315Z AUTO 15004KT 10SM CLR 08/06 A3013 RMK AO2 T00750064
Loading
Personal Weather Stations






























Interactive Weather Map New forecast layout! Learn more

10-Day Weather Forecast

Advertisements
Track Severe Weather on mobile